createdAt,value
2022-12-01T00:01:38.256Z,39.80
2022-12-01T00:04:07.226Z,40.20
2022-12-01T00:06:37.036Z,31.00
2022-12-01T00:09:24.057Z,36.90
2022-12-01T00:11:52.322Z,41.70
2022-12-01T00:14:21.455Z,32.10
2022-12-01T00:16:49.971Z,40.40
2022-12-01T00:19:18.650Z,37.80
2022-12-01T00:21:46.959Z,34.90
2022-12-01T00:24:15.141Z,35.70
2022-12-01T00:26:43.421Z,36.90
2022-12-01T00:29:12.821Z,35.00
2022-12-01T00:31:41.041Z,38.80
2022-12-01T00:34:23.528Z,35.30
2022-12-01T00:36:52.196Z,34.50
2022-12-01T00:39:20.578Z,33.70
2022-12-01T00:41:48.962Z,32.90
2022-12-01T00:44:17.167Z,34.40
2022-12-01T00:46:45.406Z,31.20
2022-12-01T00:49:14.281Z,31.20
2022-12-01T00:51:43.493Z,40.00
2022-12-01T00:54:11.977Z,36.10
2022-12-01T00:56:40.351Z,38.90
2022-12-01T00:59:08.618Z,38.90
2022-12-01T01:01:36.822Z,46.60
2022-12-01T01:04:06.707Z,43.70
2022-12-01T01:06:34.892Z,42.60
2022-12-01T01:09:03.068Z,39.70
2022-12-01T01:11:32.156Z,34.80
2022-12-01T01:14:00.844Z,33.20
2022-12-01T01:16:29.664Z,31.00
2022-12-01T01:18:58.620Z,34.30
2022-12-01T01:21:27.811Z,32.10
2022-12-01T01:23:56.030Z,28.70
2022-12-01T01:26:27.214Z,26.10
2022-12-01T01:29:01.510Z,36.90
2022-12-01T01:31:31.171Z,32.90
2022-12-01T01:33:59.499Z,31.20
2022-12-01T01:36:28.028Z,23.90
2022-12-01T01:38:56.564Z,32.90
2022-12-01T01:41:25.239Z,35.70
2022-12-01T01:44:03.155Z,24.80
2022-12-01T01:46:35.452Z,30.80
2022-12-01T01:49:09.805Z,34.10
2022-12-01T01:51:49.487Z,36.00
2022-12-01T01:54:36.286Z,36.80
2022-12-01T01:57:07.123Z,22.70
2022-12-01T01:59:47.594Z,29.60
2022-12-01T02:02:16.251Z,35.00
2022-12-01T02:04:51.272Z,35.80
2022-12-01T02:07:20.142Z,31.70
2022-12-01T02:09:48.615Z,35.40
2022-12-01T02:12:44.780Z,37.90
2022-12-01T02:15:23.866Z,35.80
2022-12-01T02:18:17.653Z,33.40
2022-12-01T02:20:54.842Z,27.20
2022-12-01T02:24:02.022Z,25.30
2022-12-01T02:26:45.349Z,23.90
2022-12-01T02:29:16.514Z,19.10
2022-12-01T02:32:03.111Z,28.30
2022-12-01T02:34:45.108Z,35.70
2022-12-01T02:37:32.643Z,30.20
2022-12-01T02:40:11.990Z,32.10
2022-12-01T02:43:03.687Z,29.30
2022-12-01T02:45:52.513Z,24.60
2022-12-01T02:48:24.322Z,21.20
2022-12-01T02:50:55.663Z,24.30
2022-12-01T02:53:24.138Z,29.20
2022-12-01T02:55:55.706Z,26.90
2022-12-01T02:58:24.074Z,38.50
2022-12-01T03:01:18.682Z,38.20
2022-12-01T03:04:05.374Z,32.10
2022-12-01T03:06:37.432Z,36.50
2022-12-01T03:09:27.467Z,32.60
2022-12-01T03:12:28.793Z,33.50
2022-12-01T03:15:36.009Z,28.10
2022-12-01T03:18:37.596Z,31.70
2022-12-01T03:21:10.501Z,35.20
2022-12-01T03:23:56.712Z,39.70
2022-12-01T03:26:30.449Z,39.10
2022-12-01T03:29:13.127Z,36.50
2022-12-01T03:31:50.882Z,40.60
2022-12-01T03:34:33.037Z,41.00
2022-12-01T03:37:07.351Z,39.40
2022-12-01T03:39:38.852Z,40.90
2022-12-01T03:42:17.220Z,42.00
2022-12-01T03:44:53.671Z,39.10
2022-12-01T03:47:25.385Z,39.10
2022-12-01T03:49:54.632Z,44.40
2022-12-01T03:52:28.662Z,43.40
2022-12-01T03:54:59.880Z,43.90
2022-12-01T03:57:39.814Z,39.80
2022-12-01T04:00:11.545Z,40.90
2022-12-01T04:02:45.165Z,39.90
2022-12-01T04:05:13.681Z,37.90
2022-12-01T04:07:41.900Z,37.00
2022-12-01T04:10:10.266Z,40.80
2022-12-01T04:12:38.614Z,45.00
2022-12-01T04:15:27.680Z,42.50
2022-12-01T04:18:16.208Z,37.10
2022-12-01T04:20:48.848Z,38.60
2022-12-01T04:23:36.354Z,37.10
2022-12-01T04:26:06.703Z,38.00
2022-12-01T04:28:37.112Z,36.70
2022-12-01T04:31:05.488Z,35.90
2022-12-01T04:33:33.732Z,44.00
2022-12-01T04:36:01.934Z,41.60
2022-12-01T04:38:31.056Z,40.60
2022-12-01T04:40:59.479Z,39.00
2022-12-01T04:43:27.760Z,36.40
2022-12-01T04:45:55.941Z,39.90
2022-12-01T04:48:24.004Z,39.40
2022-12-01T04:50:52.295Z,37.50
2022-12-01T04:53:20.574Z,33.40
2022-12-01T04:55:48.939Z,42.50
2022-12-01T04:58:17.407Z,41.80
2022-12-01T05:00:45.669Z,45.30
2022-12-01T05:03:15.411Z,42.20
2022-12-01T05:05:43.882Z,43.20
2022-12-01T05:08:14.342Z,46.80
2022-12-01T05:10:43.706Z,46.90
2022-12-01T05:13:11.967Z,41.80
2022-12-01T05:15:40.510Z,41.00
2022-12-01T05:18:09.083Z,38.10
2022-12-01T05:20:55.843Z,37.10
2022-12-01T05:23:29.344Z,39.40
2022-12-01T05:25:57.739Z,37.20
2022-12-01T05:28:26.991Z,41.40
2022-12-01T05:30:55.521Z,39.10
2022-12-01T05:33:25.323Z,37.70
2022-12-01T05:35:54.104Z,38.40
2022-12-01T05:38:22.496Z,40.40
2022-12-01T05:40:55.160Z,41.30
2022-12-01T05:43:28.657Z,40.70
2022-12-01T05:45:58.280Z,39.10
2022-12-01T05:48:26.701Z,35.50
2022-12-01T05:50:55.032Z,41.00
2022-12-01T05:53:23.635Z,40.20
2022-12-01T05:55:54.309Z,35.20
2022-12-01T05:58:23.066Z,28.10
2022-12-01T06:00:52.036Z,28.50
2022-12-01T06:03:20.302Z,28.20
2022-12-01T06:05:48.604Z,34.80
2022-12-01T06:08:17.068Z,33.30
2022-12-01T06:10:46.361Z,37.10
2022-12-01T06:13:14.841Z,34.90
2022-12-01T06:15:43.336Z,42.20
2022-12-01T06:18:11.715Z,39.80
2022-12-01T06:20:41.154Z,34.20
2022-12-01T06:23:09.949Z,35.00
2022-12-01T06:25:38.397Z,37.50
2022-12-01T06:28:07.582Z,36.70
2022-12-01T06:30:36.174Z,38.20
2022-12-01T06:33:04.384Z,37.60
2022-12-01T06:35:33.583Z,38.10
2022-12-01T06:38:02.737Z,41.70
2022-12-01T06:40:31.299Z,34.30
2022-12-01T06:43:02.485Z,40.40
2022-12-01T06:45:32.477Z,39.00
2022-12-01T06:48:01.989Z,34.10
2022-12-01T06:50:30.718Z,35.20
2022-12-01T06:52:59.969Z,40.00
2022-12-01T06:55:28.673Z,33.50
2022-12-01T06:58:01.033Z,41.20
2022-12-01T07:00:30.434Z,33.10
2022-12-01T07:02:59.071Z,38.40
2022-12-01T07:05:27.716Z,33.90
2022-12-01T07:07:59.468Z,32.80
2022-12-01T07:10:28.720Z,35.00
2022-12-01T07:12:57.353Z,35.30
2022-12-01T07:15:25.768Z,31.30
2022-12-01T07:17:54.103Z,35.80
2022-12-01T07:20:22.692Z,42.10
2022-12-01T07:22:50.985Z,39.10
2022-12-01T07:25:19.559Z,40.20
2022-12-01T07:27:48.131Z,37.30
2022-12-01T07:30:18.146Z,32.70
2022-12-01T07:32:46.953Z,38.90
2022-12-01T07:35:15.659Z,43.40
2022-12-01T07:37:45.236Z,40.00
2022-12-01T07:40:15.478Z,42.30
2022-12-01T07:42:44.824Z,44.70
2022-12-01T07:45:14.293Z,44.20
2022-12-01T07:47:44.861Z,44.80
2022-12-01T07:50:13.607Z,39.70
2022-12-01T07:52:42.751Z,47.10
2022-12-01T07:55:11.491Z,41.30
2022-12-01T07:57:40.828Z,39.60
2022-12-01T08:00:11.339Z,36.90
2022-12-01T08:02:43.376Z,37.50
2022-12-01T08:05:12.100Z,40.50
2022-12-01T08:07:41.701Z,38.20
2022-12-01T08:10:11.640Z,38.20
2022-12-01T08:12:41.962Z,43.30
2022-12-01T08:15:10.957Z,46.20
2022-12-01T08:17:39.535Z,42.70
2022-12-01T08:20:09.106Z,42.50
2022-12-01T08:22:37.722Z,39.00
2022-12-01T08:25:06.638Z,43.30
2022-12-01T08:27:35.719Z,40.40
2022-12-01T08:30:05.138Z,43.80
2022-12-01T08:32:34.029Z,45.20
2022-12-01T08:35:02.707Z,42.40
2022-12-01T08:37:31.385Z,39.70
2022-12-01T08:40:00.209Z,35.10
2022-12-01T08:42:29.723Z,36.70
2022-12-01T08:44:58.671Z,37.30
2022-12-01T08:47:30.676Z,31.80
2022-12-01T08:49:59.378Z,42.70
2022-12-01T08:52:35.274Z,43.80
2022-12-01T08:55:05.321Z,41.00
2022-12-01T08:57:33.968Z,39.10
2022-12-01T09:00:03.468Z,42.40
2022-12-01T09:02:32.255Z,39.80
2022-12-01T09:05:01.844Z,42.00
2022-12-01T09:07:31.431Z,34.00
2022-12-01T09:10:00.343Z,39.30
2022-12-01T09:12:30.334Z,40.50
2022-12-01T09:14:59.019Z,36.50
2022-12-01T09:17:28.846Z,36.80
2022-12-01T09:19:58.259Z,41.10
2022-12-01T09:22:27.750Z,45.10
2022-12-01T09:24:56.770Z,44.20
2022-12-01T09:27:27.317Z,41.50
2022-12-01T09:29:58.202Z,41.90
2022-12-01T09:32:26.789Z,40.40
2022-12-01T09:34:55.688Z,47.40
2022-12-01T09:37:24.796Z,39.00
2022-12-01T09:39:53.451Z,38.80
2022-12-01T09:42:33.892Z,43.30
2022-12-01T09:45:06.477Z,42.30
2022-12-01T09:47:36.213Z,38.20
2022-12-01T09:50:15.152Z,37.60
2022-12-01T09:52:47.962Z,43.80
2022-12-01T09:55:20.043Z,43.00
2022-12-01T09:57:51.088Z,42.20
2022-12-01T10:00:23.700Z,40.50
2022-12-01T10:02:59.052Z,31.80
2022-12-01T10:05:46.888Z,28.70
2022-12-01T10:08:32.366Z,38.90
2022-12-01T10:11:13.869Z,39.10
2022-12-01T10:13:43.888Z,39.20
2022-12-01T10:16:19.100Z,41.30
2022-12-01T10:18:59.476Z,37.00
2022-12-01T10:22:10.346Z,41.80
2022-12-01T10:24:48.470Z,41.50
2022-12-01T10:27:22.167Z,29.30
2022-12-01T10:30:03.694Z,33.70
2022-12-01T10:32:41.454Z,39.60
2022-12-01T10:35:17.048Z,35.80
2022-12-01T10:37:47.787Z,33.70
2022-12-01T10:40:18.711Z,38.90
2022-12-01T10:42:49.487Z,36.00
2022-12-01T10:45:25.033Z,38.30
2022-12-01T10:48:09.255Z,35.80
2022-12-01T10:50:38.536Z,41.80
2022-12-01T10:53:07.987Z,41.20
2022-12-01T10:55:44.877Z,40.20
2022-12-01T10:58:19.401Z,38.00
2022-12-01T11:00:59.940Z,30.60
2022-12-01T11:03:33.525Z,41.20
2022-12-01T11:06:06.128Z,43.70
2022-12-01T11:08:50.992Z,39.10
2022-12-01T11:11:37.162Z,39.70
2022-12-01T11:14:18.060Z,35.80
2022-12-01T11:16:49.458Z,37.70
2022-12-01T11:19:35.187Z,32.50
2022-12-01T11:22:21.051Z,36.30
2022-12-01T11:24:55.613Z,36.00
2022-12-01T11:27:30.834Z,18.50
2022-12-01T11:30:05.491Z,38.10
2022-12-01T11:32:39.683Z,35.30
2022-12-01T11:35:21.465Z,39.60
2022-12-01T11:38:29.329Z,31.50
2022-12-01T11:40:58.049Z,34.70
2022-12-01T11:43:33.928Z,34.70
2022-12-01T11:46:06.618Z,31.40
2022-12-01T11:48:36.810Z,41.60
2022-12-01T11:51:11.258Z,39.70
2022-12-01T11:53:43.137Z,32.50
2022-12-01T11:56:16.133Z,30.40
2022-12-01T11:58:47.832Z,16.60
2022-12-01T12:02:01.687Z,38.50
2022-12-01T12:04:57.725Z,43.80
2022-12-01T12:07:59.056Z,41.10
2022-12-01T12:11:12.813Z,41.00
2022-12-01T12:13:55.827Z,32.00
2022-12-01T12:16:46.403Z,45.60
2022-12-01T12:19:45.339Z,47.20
2022-12-01T12:22:36.299Z,34.90
2022-12-01T12:25:32.638Z,41.70
2022-12-01T12:28:03.890Z,26.10
2022-12-01T12:30:42.628Z,27.00
2022-12-01T12:33:11.957Z,36.20
2022-12-01T12:35:51.006Z,24.60
2022-12-01T12:38:51.292Z,25.20
2022-12-01T12:41:45.241Z,24.50
2022-12-01T12:44:49.282Z,23.60
2022-12-01T12:47:33.977Z,23.20
2022-12-01T12:50:29.083Z,24.90
2022-12-01T12:53:05.308Z,26.00
2022-12-01T12:55:40.200Z,22.50
2022-12-01T12:58:29.730Z,19.80
2022-12-01T13:01:14.092Z,15.30
2022-12-01T13:04:05.353Z,18.80
2022-12-01T13:11:13.514Z,22.30
2022-12-01T13:14:11.492Z,27.00
2022-12-01T13:16:45.100Z,25.10
2022-12-01T13:19:19.733Z,22.90
2022-12-01T13:21:51.870Z,24.00
2022-12-01T13:24:24.346Z,23.30
2022-12-01T13:27:02.100Z,22.90
2022-12-01T13:29:41.047Z,24.30
2022-12-01T13:32:36.308Z,29.70
2022-12-01T13:35:22.410Z,21.40
2022-12-01T13:37:51.201Z,22.00
2022-12-01T13:40:26.323Z,24.60
2022-12-01T13:43:08.911Z,21.20
2022-12-01T13:45:40.911Z,21.60
2022-12-01T13:48:28.144Z,18.80
2022-12-01T13:50:56.572Z,20.90
2022-12-01T13:53:29.801Z,19.80
2022-12-01T13:56:02.783Z,22.70
2022-12-01T13:58:34.448Z,22.90
2022-12-01T14:01:21.480Z,20.90
2022-12-01T14:03:57.052Z,25.60
2022-12-01T14:06:31.518Z,21.90
2022-12-01T14:09:32.937Z,23.10
2022-12-01T14:12:18.755Z,20.70
2022-12-01T14:15:14.485Z,20.30
2022-12-01T14:17:45.523Z,22.70
2022-12-01T14:20:14.212Z,23.70
2022-12-01T14:22:45.669Z,28.80
2022-12-01T14:25:20.526Z,26.30
2022-12-01T14:27:53.701Z,26.30
2022-12-01T14:30:46.856Z,25.60
2022-12-01T14:33:46.767Z,23.80
2022-12-01T14:36:29.584Z,23.80
2022-12-01T14:38:57.947Z,24.90
2022-12-01T14:41:49.045Z,22.10
2022-12-01T14:44:36.325Z,23.80
2022-12-01T14:47:04.855Z,21.50
2022-12-01T14:49:43.231Z,17.70
2022-12-01T14:52:34.035Z,22.00
2022-12-01T14:55:07.956Z,22.20
2022-12-01T14:57:45.902Z,23.20
2022-12-01T15:00:19.025Z,22.50
2022-12-01T15:02:58.049Z,16.70
2022-12-01T15:05:29.420Z,24.50
2022-12-01T15:08:33.305Z,24.60
2022-12-01T15:10:56.777Z,25.60
2022-12-01T15:13:31.156Z,23.20
2022-12-01T15:16:02.217Z,27.20
2022-12-01T15:18:40.689Z,25.50
2022-12-01T15:21:31.909Z,23.80
2022-12-01T15:24:02.991Z,30.50
2022-12-01T15:26:35.668Z,29.10
2022-12-01T15:29:36.922Z,22.90
2022-12-01T15:32:08.841Z,26.20
2022-12-01T15:34:44.909Z,18.90
2022-12-01T15:37:19.677Z,24.30
2022-12-01T15:39:51.505Z,21.60
2022-12-01T15:42:33.887Z,20.90
2022-12-01T15:45:16.863Z,20.60
2022-12-01T15:47:48.403Z,14.40
2022-12-01T15:50:34.048Z,11.10
2022-12-01T15:53:07.261Z,16.60
2022-12-01T15:55:38.837Z,17.80
2022-12-01T15:58:09.457Z,22.20
2022-12-01T16:00:38.235Z,20.80
2022-12-01T16:03:07.318Z,23.80
2022-12-01T16:05:36.626Z,24.00
2022-12-01T16:08:23.298Z,20.60
2022-12-01T16:11:18.536Z,23.10
2022-12-01T16:14:20.813Z,21.00
2022-12-01T16:16:50.301Z,20.50
2022-12-01T16:19:19.014Z,18.00
2022-12-01T16:21:57.725Z,19.10
2022-12-01T16:24:37.205Z,15.20
2022-12-01T16:27:24.905Z,16.20
2022-12-01T16:29:53.399Z,18.50
2022-12-01T16:32:38.911Z,18.90
2022-12-01T16:35:28.017Z,23.10
2022-12-01T16:37:57.707Z,21.60
2022-12-01T16:40:27.259Z,19.60
2022-12-01T16:42:56.892Z,21.20
2022-12-01T16:45:27.300Z,21.10
2022-12-01T16:47:56.245Z,21.40
2022-12-01T16:50:25.871Z,20.80
2022-12-01T16:52:55.670Z,21.50
2022-12-01T16:55:38.659Z,16.70
2022-12-01T16:58:09.470Z,19.10
2022-12-01T17:00:39.395Z,15.60
2022-12-01T17:03:12.458Z,21.60
2022-12-01T17:05:42.323Z,19.10
2022-12-01T17:08:12.076Z,26.40
2022-12-01T17:10:46.483Z,35.10
2022-12-01T17:13:15.768Z,36.60
2022-12-01T17:15:47.587Z,32.10
2022-12-01T17:18:19.422Z,33.50
2022-12-01T17:21:07.530Z,38.00
2022-12-01T17:23:38.940Z,32.80
2022-12-01T17:26:26.033Z,43.30
2022-12-01T17:28:55.351Z,33.60
2022-12-01T17:31:24.428Z,34.40
2022-12-01T17:33:53.142Z,32.80
2022-12-01T17:36:22.241Z,26.80
2022-12-01T17:38:51.422Z,34.60
2022-12-01T17:41:26.301Z,31.80
2022-12-01T17:43:55.450Z,32.30
2022-12-01T17:46:23.872Z,27.40
2022-12-01T17:48:52.771Z,33.70
2022-12-01T17:51:21.534Z,49.40
2022-12-01T17:53:50.364Z,38.10
2022-12-01T17:56:19.802Z,72.70
2022-12-01T17:58:50.751Z,72.20
2022-12-01T18:01:24.251Z,74.00
2022-12-01T18:03:59.199Z,73.50
2022-12-01T18:06:28.109Z,57.30
2022-12-01T18:08:57.664Z,57.80
2022-12-01T18:11:26.666Z,89.60
2022-12-01T18:13:55.763Z,86.10
2022-12-01T18:16:28.070Z,95.00
2022-12-01T18:18:58.496Z,50.40
2022-12-01T18:21:28.373Z,46.00
2022-12-01T18:24:03.203Z,30.80
2022-12-01T18:26:33.633Z,34.00
2022-12-01T18:29:08.657Z,40.10
2022-12-01T18:31:38.429Z,34.00
2022-12-01T18:34:08.394Z,47.40
2022-12-01T18:36:41.193Z,31.10
2022-12-01T18:39:11.753Z,30.50
2022-12-01T18:41:41.521Z,26.80
2022-12-01T18:44:11.168Z,28.90
2022-12-01T18:46:40.514Z,25.40
2022-12-01T18:49:15.261Z,26.60
2022-12-01T18:51:44.401Z,24.60
2022-12-01T18:54:15.477Z,24.50
2022-12-01T18:56:44.347Z,24.20
2022-12-01T18:59:14.263Z,24.00
2022-12-01T19:01:44.149Z,25.30
2022-12-01T19:04:16.271Z,22.60
2022-12-01T19:06:46.365Z,26.40
2022-12-01T19:09:16.385Z,28.50
2022-12-01T19:11:45.754Z,34.90
2022-12-01T19:14:17.884Z,23.10
2022-12-01T19:16:48.490Z,24.40
2022-12-01T19:19:17.409Z,23.50
2022-12-01T19:21:46.498Z,17.90
2022-12-01T19:24:15.841Z,23.10
2022-12-01T19:26:45.054Z,17.20
2022-12-01T19:29:15.070Z,20.40
2022-12-01T19:31:44.070Z,21.20
2022-12-01T19:34:13.253Z,18.40
2022-12-01T19:36:42.273Z,27.80
2022-12-01T19:39:11.682Z,26.40
2022-12-01T19:41:40.972Z,18.70
2022-12-01T19:44:11.584Z,21.90
2022-12-01T19:46:40.707Z,25.30
2022-12-01T19:49:11.289Z,57.20
2022-12-01T19:51:40.652Z,52.00
2022-12-01T19:54:19.682Z,52.60
2022-12-01T19:56:50.588Z,79.50
2022-12-01T19:59:19.900Z,96.90
2022-12-01T20:01:49.576Z,29.20
2022-12-01T20:04:19.080Z,28.10
2022-12-01T20:06:48.535Z,25.30
2022-12-01T20:09:17.720Z,20.20
2022-12-01T20:11:46.896Z,37.00
2022-12-01T20:14:16.409Z,22.80
2022-12-01T20:16:46.699Z,20.90
2022-12-01T20:19:15.826Z,22.40
2022-12-01T20:21:45.224Z,25.40
2022-12-01T20:24:16.998Z,19.40
2022-12-01T20:26:50.939Z,11.30
2022-12-01T20:29:23.069Z,20.10
2022-12-01T20:31:54.260Z,20.20
2022-12-01T20:34:34.118Z,19.40
2022-12-01T20:37:04.808Z,14.60
2022-12-01T20:39:37.491Z,17.40
2022-12-01T20:42:07.556Z,14.90
2022-12-01T20:44:38.007Z,17.30
2022-12-01T20:47:07.410Z,19.80
2022-12-01T20:49:36.922Z,16.80
2022-12-01T20:52:07.363Z,16.80
2022-12-01T20:54:37.269Z,17.00
2022-12-01T20:57:07.098Z,18.70
2022-12-01T20:59:37.716Z,17.10
2022-12-01T21:02:06.518Z,21.40
2022-12-01T21:04:35.631Z,18.00
2022-12-01T21:07:04.708Z,20.30
2022-12-01T21:09:34.043Z,15.30
2022-12-01T21:12:29.708Z,16.60
2022-12-01T21:15:09.057Z,16.50
2022-12-01T21:17:47.160Z,17.90
2022-12-01T21:20:36.317Z,13.60
2022-12-01T21:23:16.871Z,16.90
2022-12-01T21:25:48.297Z,15.80
2022-12-01T21:28:19.363Z,20.00
2022-12-01T21:30:49.904Z,20.70
2022-12-01T21:33:43.043Z,22.00
2022-12-01T21:36:20.122Z,22.60
2022-12-01T21:38:54.850Z,35.00
2022-12-01T21:41:31.250Z,20.70
2022-12-01T21:44:17.627Z,27.60
2022-12-01T21:46:48.264Z,19.00
2022-12-01T21:49:22.233Z,28.30
2022-12-01T21:51:53.709Z,16.30
2022-12-01T21:54:23.444Z,25.50
2022-12-01T21:56:57.759Z,42.30
2022-12-01T21:59:26.402Z,24.30
2022-12-01T22:01:57.763Z,93.10
2022-12-01T22:04:30.968Z,44.30
2022-12-01T22:06:59.765Z,24.60
2022-12-01T22:09:34.478Z,46.50
2022-12-01T22:12:17.521Z,26.90
2022-12-01T22:14:45.894Z,14.70
2022-12-01T22:17:21.048Z,12.60
2022-12-01T22:19:58.094Z,13.00
2022-12-01T22:22:33.197Z,16.60
2022-12-01T22:25:21.080Z,14.50
2022-12-01T22:27:49.563Z,14.80
2022-12-01T22:30:24.606Z,14.40
2022-12-01T22:33:00.957Z,16.70
2022-12-01T22:35:32.988Z,14.50
2022-12-01T22:38:07.140Z,16.00
2022-12-01T22:40:38.655Z,8.90
2022-12-01T22:43:16.192Z,16.20
2022-12-01T22:45:54.034Z,17.80
2022-12-01T22:48:22.433Z,15.70
2022-12-01T22:50:52.055Z,17.50
2022-12-01T22:53:31.136Z,16.10
2022-12-01T22:56:01.765Z,16.00
2022-12-01T22:58:31.957Z,17.90
2022-12-01T23:01:15.407Z,16.40
2022-12-01T23:03:44.058Z,16.60
2022-12-01T23:06:52.181Z,15.30
2022-12-01T23:09:28.341Z,14.60
2022-12-01T23:12:02.495Z,16.80
2022-12-01T23:14:30.865Z,16.10
2022-12-01T23:17:07.657Z,18.30
2022-12-01T23:19:35.916Z,17.90
2022-12-01T23:22:04.615Z,18.60
2022-12-01T23:24:34.186Z,18.10
2022-12-01T23:27:02.594Z,16.70
2022-12-01T23:29:31.388Z,15.80
2022-12-01T23:31:59.653Z,17.30
2022-12-01T23:34:28.652Z,15.30
2022-12-01T23:36:57.858Z,12.80
2022-12-01T23:39:32.288Z,14.20
2022-12-01T23:42:00.585Z,10.90
2022-12-01T23:44:34.769Z,10.00
2022-12-01T23:47:03.846Z,14.20
2022-12-01T23:49:34.802Z,18.90
2022-12-01T23:52:03.793Z,20.00
2022-12-01T23:54:35.142Z,15.50
2022-12-01T23:57:24.594Z,16.40
